sensor_id;sensor_type;location;lat;lon;timestamp;temperature;humidity
52509;DHT22;38420;53.150;6.370;2023-08-06T00:00:04;13.70;99.90
52509;DHT22;38420;53.150;6.370;2023-08-06T00:02:30;15.50;99.90
52509;DHT22;38420;53.150;6.370;2023-08-06T00:04:55;13.00;99.90
52509;DHT22;38420;53.150;6.370;2023-08-06T00:07:21;13.30;99.90
52509;DHT22;38420;53.150;6.370;2023-08-06T00:09:47;15.40;99.90
52509;DHT22;38420;53.150;6.370;2023-08-06T00:12:12;15.20;99.90
52509;DHT22;38420;53.150;6.370;2023-08-06T00:14:38;13.10;99.90
52509;DHT22;38420;53.150;6.370;2023-08-06T00:17:04;12.70;99.90
52509;DHT22;38420;53.150;6.370;2023-08-06T00:19:31;14.40;99.90
52509;DHT22;38420;53.150;6.370;2023-08-06T00:21:57;12.80;99.90
52509;DHT22;38420;53.150;6.370;2023-08-06T00:24:22;14.50;99.90
52509;DHT22;38420;53.150;6.370;2023-08-06T00:26:48;15.30;99.90
52509;DHT22;38420;53.150;6.370;2023-08-06T00:29:13;15.60;99.90
52509;DHT22;38420;53.150;6.370;2023-08-06T00:31:39;13.50;99.90
52509;DHT22;38420;53.150;6.370;2023-08-06T00:34:05;15.60;99.90
52509;DHT22;38420;53.150;6.370;2023-08-06T00:36:30;15.70;99.90
52509;DHT22;38420;53.150;6.370;2023-08-06T00:38:56;13.20;99.90
52509;DHT22;38420;53.150;6.370;2023-08-06T00:41:21;13.50;99.90
52509;DHT22;38420;53.150;6.370;2023-08-06T00:43:47;15.00;99.90
52509;DHT22;38420;53.150;6.370;2023-08-06T00:46:13;14.30;99.90
52509;DHT22;38420;53.150;6.370;2023-08-06T00:48:40;15.60;99.90
52509;DHT22;38420;53.150;6.370;2023-08-06T00:51:06;15.50;99.90
52509;DHT22;38420;53.150;6.370;2023-08-06T00:53:32;13.20;99.90
52509;DHT22;38420;53.150;6.370;2023-08-06T00:55:58;12.80;99.90
52509;DHT22;38420;53.150;6.370;2023-08-06T00:58:25;15.70;99.90
52509;DHT22;38420;53.150;6.370;2023-08-06T01:00:50;15.60;99.90
52509;DHT22;38420;53.150;6.370;2023-08-06T01:03:16;14.90;99.90
52509;DHT22;38420;53.150;6.370;2023-08-06T01:05:42;15.00;99.90
52509;DHT22;38420;53.150;6.370;2023-08-06T01:11:05;12.90;99.90
52509;DHT22;38420;53.150;6.370;2023-08-06T01:13:48;12.80;99.90
52509;DHT22;38420;53.150;6.370;2023-08-06T01:16:18;15.60;99.90
52509;DHT22;38420;53.150;6.370;2023-08-06T01:18:44;15.40;99.90
52509;DHT22;38420;53.150;6.370;2023-08-06T01:21:15;15.50;99.90
52509;DHT22;38420;53.150;6.370;2023-08-06T01:23:41;14.20;99.90
52509;DHT22;38420;53.150;6.370;2023-08-06T01:26:27;14.10;99.90
52509;DHT22;38420;53.150;6.370;2023-08-06T01:29:01;15.60;99.90
52509;DHT22;38420;53.150;6.370;2023-08-06T01:31:37;14.70;99.90
52509;DHT22;38420;53.150;6.370;2023-08-06T01:34:06;14.50;99.90
52509;DHT22;38420;53.150;6.370;2023-08-06T01:36:32;15.40;99.90
52509;DHT22;38420;53.150;6.370;2023-08-06T01:38:59;12.90;99.90
52509;DHT22;38420;53.150;6.370;2023-08-06T01:41:25;15.00;99.90
52509;DHT22;38420;53.150;6.370;2023-08-06T01:43:51;12.80;99.90
52509;DHT22;38420;53.150;6.370;2023-08-06T01:46:16;12.80;99.90
52509;DHT22;38420;53.150;6.370;2023-08-06T01:48:43;14.60;99.90
52509;DHT22;38420;53.150;6.370;2023-08-06T01:51:08;15.60;99.90
52509;DHT22;38420;53.150;6.370;2023-08-06T01:53:34;13.50;99.90
52509;DHT22;38420;53.150;6.370;2023-08-06T01:56:00;15.60;99.90
52509;DHT22;38420;53.150;6.370;2023-08-06T01:58:25;13.50;99.90
52509;DHT22;38420;53.150;6.370;2023-08-06T02:00:51;15.20;99.90
52509;DHT22;38420;53.150;6.370;2023-08-06T02:03:16;15.50;99.90
52509;DHT22;38420;53.150;6.370;2023-08-06T02:05:42;15.10;99.90
52509;DHT22;38420;53.150;6.370;2023-08-06T02:08:08;14.60;99.90
52509;DHT22;38420;53.150;6.370;2023-08-06T02:10:34;14.90;99.90
52509;DHT22;38420;53.150;6.370;2023-08-06T02:12:59;13.10;99.90
52509;DHT22;38420;53.150;6.370;2023-08-06T02:15:25;13.30;99.90
52509;DHT22;38420;53.150;6.370;2023-08-06T02:17:51;15.60;99.90
52509;DHT22;38420;53.150;6.370;2023-08-06T02:20:16;15.60;99.90
52509;DHT22;38420;53.150;6.370;2023-08-06T02:22:42;15.50;99.90
52509;DHT22;38420;53.150;6.370;2023-08-06T02:25:08;14.10;99.90
52509;DHT22;38420;53.150;6.370;2023-08-06T02:27:33;13.00;99.90
52509;DHT22;38420;53.150;6.370;2023-08-06T02:29:59;13.00;99.90
52509;DHT22;38420;53.150;6.370;2023-08-06T02:32:25;13.60;99.90
52509;DHT22;38420;53.150;6.370;2023-08-06T02:34:51;14.40;99.90
52509;DHT22;38420;53.150;6.370;2023-08-06T02:37:16;15.60;99.90
52509;DHT22;38420;53.150;6.370;2023-08-06T02:39:42;15.40;99.90
52509;DHT22;38420;53.150;6.370;2023-08-06T02:42:08;13.30;99.90
52509;DHT22;38420;53.150;6.370;2023-08-06T02:44:35;13.70;99.90
52509;DHT22;38420;53.150;6.370;2023-08-06T02:47:00;12.70;99.90
52509;DHT22;38420;53.150;6.370;2023-08-06T02:49:26;15.60;99.90
52509;DHT22;38420;53.150;6.370;2023-08-06T02:51:52;12.80;99.90
52509;DHT22;38420;53.150;6.370;2023-08-06T02:54:18;15.40;99.90
52509;DHT22;38420;53.150;6.370;2023-08-06T02:56:45;13.20;99.90
52509;DHT22;38420;53.150;6.370;2023-08-06T02:59:11;15.30;99.90
52509;DHT22;38420;53.150;6.370;2023-08-06T03:01:37;15.00;99.90
52509;DHT22;38420;53.150;6.370;2023-08-06T03:04:03;14.80;99.90
52509;DHT22;38420;53.150;6.370;2023-08-06T03:06:28;14.60;99.90
52509;DHT22;38420;53.150;6.370;2023-08-06T03:08:54;15.70;99.90
52509;DHT22;38420;53.150;6.370;2023-08-06T03:11:20;12.40;99.90
52509;DHT22;38420;53.150;6.370;2023-08-06T03:13:47;15.60;99.90
52509;DHT22;38420;53.150;6.370;2023-08-06T03:16:13;14.10;99.90
52509;DHT22;38420;53.150;6.370;2023-08-06T03:18:39;14.10;99.90
52509;DHT22;38420;53.150;6.370;2023-08-06T03:21:05;15.50;99.90
52509;DHT22;38420;53.150;6.370;2023-08-06T03:23:31;15.30;99.90
52509;DHT22;38420;53.150;6.370;2023-08-06T03:26:00;12.80;99.90
52509;DHT22;38420;53.150;6.370;2023-08-06T03:28:26;15.50;99.90
52509;DHT22;38420;53.150;6.370;2023-08-06T03:31:02;12.80;99.90
52509;DHT22;38420;53.150;6.370;2023-08-06T03:33:28;12.90;99.90
52509;DHT22;38420;53.150;6.370;2023-08-06T03:35:54;13.10;99.90
52509;DHT22;38420;53.150;6.370;2023-08-06T03:38:20;12.70;99.90
52509;DHT22;38420;53.150;6.370;2023-08-06T03:40:48;15.30;99.90
52509;DHT22;38420;53.150;6.370;2023-08-06T03:43:15;15.50;99.90
52509;DHT22;38420;53.150;6.370;2023-08-06T03:45:41;13.10;99.90
52509;DHT22;38420;53.150;6.370;2023-08-06T03:48:07;14.60;99.90
52509;DHT22;38420;53.150;6.370;2023-08-06T03:50:33;13.10;99.90
52509;DHT22;38420;53.150;6.370;2023-08-06T03:52:59;14.70;99.90
52509;DHT22;38420;53.150;6.370;2023-08-06T03:55:24;12.90;99.90
52509;DHT22;38420;53.150;6.370;2023-08-06T03:57:50;12.70;99.90
52509;DHT22;38420;53.150;6.370;2023-08-06T04:00:16;13.40;99.90
52509;DHT22;38420;53.150;6.370;2023-08-06T04:02:42;12.80;99.90
52509;DHT22;38420;53.150;6.370;2023-08-06T04:05:08;15.80;99.90
52509;DHT22;38420;53.150;6.370;2023-08-06T04:07:33;15.70;99.90
52509;DHT22;38420;53.150;6.370;2023-08-06T04:10:01;13.10;99.90
52509;DHT22;38420;53.150;6.370;2023-08-06T04:12:27;15.70;99.90
52509;DHT22;38420;53.150;6.370;2023-08-06T04:14:53;15.70;99.90
52509;DHT22;38420;53.150;6.370;2023-08-06T04:17:19;15.40;99.90
52509;DHT22;38420;53.150;6.370;2023-08-06T04:19:53;13.10;99.90
52509;DHT22;38420;53.150;6.370;2023-08-06T04:22:19;15.80;99.90
52509;DHT22;38420;53.150;6.370;2023-08-06T04:24:45;15.50;99.90
52509;DHT22;38420;53.150;6.370;2023-08-06T04:27:11;13.70;99.90
52509;DHT22;38420;53.150;6.370;2023-08-06T04:29:37;15.60;99.90
52509;DHT22;38420;53.150;6.370;2023-08-06T04:32:08;14.00;99.90
52509;DHT22;38420;53.150;6.370;2023-08-06T04:34:37;12.70;99.90
52509;DHT22;38420;53.150;6.370;2023-08-06T04:37:03;14.20;99.90
52509;DHT22;38420;53.150;6.370;2023-08-06T04:39:29;15.80;99.90
52509;DHT22;38420;53.150;6.370;2023-08-06T04:41:58;15.80;99.90
52509;DHT22;38420;53.150;6.370;2023-08-06T04:44:23;14.10;99.90
52509;DHT22;38420;53.150;6.370;2023-08-06T04:46:49;13.70;99.90
52509;DHT22;38420;53.150;6.370;2023-08-06T04:49:15;12.70;99.90
52509;DHT22;38420;53.150;6.370;2023-08-06T04:51:41;15.30;99.90
52509;DHT22;38420;53.150;6.370;2023-08-06T04:54:07;15.80;99.90
52509;DHT22;38420;53.150;6.370;2023-08-06T04:56:32;12.80;99.90
52509;DHT22;38420;53.150;6.370;2023-08-06T04:58:58;12.90;99.90
52509;DHT22;38420;53.150;6.370;2023-08-06T05:01:24;15.80;99.90
52509;DHT22;38420;53.150;6.370;2023-08-06T05:03:50;13.10;99.90
52509;DHT22;38420;53.150;6.370;2023-08-06T05:06:15;14.50;99.90
52509;DHT22;38420;53.150;6.370;2023-08-06T05:08:41;16.00;99.90
52509;DHT22;38420;53.150;6.370;2023-08-06T05:11:07;16.00;99.90
52509;DHT22;38420;53.150;6.370;2023-08-06T05:13:32;14.40;99.90
52509;DHT22;38420;53.150;6.370;2023-08-06T05:15:58;16.00;99.90
52509;DHT22;38420;53.150;6.370;2023-08-06T05:18:24;13.30;99.90
52509;DHT22;38420;53.150;6.370;2023-08-06T05:20:49;16.10;99.90
52509;DHT22;38420;53.150;6.370;2023-08-06T05:23:15;16.20;99.90
52509;DHT22;38420;53.150;6.370;2023-08-06T05:25:40;16.20;99.90
52509;DHT22;38420;53.150;6.370;2023-08-06T05:28:06;13.30;99.90
52509;DHT22;38420;53.150;6.370;2023-08-06T05:30:32;13.60;99.90
52509;DHT22;38420;53.150;6.370;2023-08-06T05:32:57;16.00;99.90
52509;DHT22;38420;53.150;6.370;2023-08-06T05:35:23;16.40;99.90
52509;DHT22;38420;53.150;6.370;2023-08-06T05:37:53;16.30;99.90
52509;DHT22;38420;53.150;6.370;2023-08-06T05:40:18;15.70;99.90
52509;DHT22;38420;53.150;6.370;2023-08-06T05:42:44;15.70;99.90
52509;DHT22;38420;53.150;6.370;2023-08-06T05:45:10;15.70;99.90
52509;DHT22;38420;53.150;6.370;2023-08-06T05:47:35;16.40;99.90
52509;DHT22;38420;53.150;6.370;2023-08-06T05:50:01;14.40;99.90
52509;DHT22;38420;53.150;6.370;2023-08-06T05:52:27;15.20;99.90
52509;DHT22;38420;53.150;6.370;2023-08-06T05:54:52;13.50;99.90
52509;DHT22;38420;53.150;6.370;2023-08-06T05:57:18;15.90;99.90
52509;DHT22;38420;53.150;6.370;2023-08-06T05:59:43;16.20;99.90
52509;DHT22;38420;53.150;6.370;2023-08-06T06:02:09;14.50;99.90
52509;DHT22;38420;53.150;6.370;2023-08-06T06:04:35;14.80;99.90
52509;DHT22;38420;53.150;6.370;2023-08-06T06:07:01;14.10;99.90
52509;DHT22;38420;53.150;6.370;2023-08-06T06:09:26;14.90;99.90
52509;DHT22;38420;53.150;6.370;2023-08-06T06:11:52;16.40;99.90
52509;DHT22;38420;53.150;6.370;2023-08-06T06:14:18;13.90;99.90
52509;DHT22;38420;53.150;6.370;2023-08-06T06:16:44;14.90;99.90
52509;DHT22;38420;53.150;6.370;2023-08-06T06:19:10;13.60;99.90
52509;DHT22;38420;53.150;6.370;2023-08-06T06:21:36;14.10;99.90
52509;DHT22;38420;53.150;6.370;2023-08-06T06:24:03;13.70;99.90
52509;DHT22;38420;53.150;6.370;2023-08-06T06:26:29;14.00;99.90
52509;DHT22;38420;53.150;6.370;2023-08-06T06:28:55;16.10;99.90
52509;DHT22;38420;53.150;6.370;2023-08-06T06:31:21;16.30;99.90
52509;DHT22;38420;53.150;6.370;2023-08-06T06:33:46;16.50;99.90
52509;DHT22;38420;53.150;6.370;2023-08-06T06:36:12;16.40;99.90
52509;DHT22;38420;53.150;6.370;2023-08-06T06:38:38;14.00;99.90
52509;DHT22;38420;53.150;6.370;2023-08-06T06:41:04;15.20;99.90
52509;DHT22;38420;53.150;6.370;2023-08-06T06:43:30;16.70;99.90
52509;DHT22;38420;53.150;6.370;2023-08-06T06:45:59;16.80;99.90
52509;DHT22;38420;53.150;6.370;2023-08-06T06:48:29;16.70;99.90
52509;DHT22;38420;53.150;6.370;2023-08-06T06:50:55;15.60;99.90
52509;DHT22;38420;53.150;6.370;2023-08-06T06:53:20;15.50;99.90
52509;DHT22;38420;53.150;6.370;2023-08-06T06:55:48;16.90;99.90
52509;DHT22;38420;53.150;6.370;2023-08-06T06:58:15;16.00;99.90
52509;DHT22;38420;53.150;6.370;2023-08-06T07:00:41;16.90;99.90
52509;DHT22;38420;53.150;6.370;2023-08-06T07:03:07;14.50;99.90
52509;DHT22;38420;53.150;6.370;2023-08-06T07:05:33;17.10;99.90
52509;DHT22;38420;53.150;6.370;2023-08-06T07:07:58;14.90;99.90
52509;DHT22;38420;53.150;6.370;2023-08-06T07:10:25;17.00;99.90
52509;DHT22;38420;53.150;6.370;2023-08-06T07:12:50;14.90;99.90
52509;DHT22;38420;53.150;6.370;2023-08-06T07:15:16;15.60;99.90
52509;DHT22;38420;53.150;6.370;2023-08-06T07:17:43;17.10;99.90
52509;DHT22;38420;53.150;6.370;2023-08-06T07:20:09;16.80;99.90
52509;DHT22;38420;53.150;6.370;2023-08-06T07:22:34;15.90;99.90
52509;DHT22;38420;53.150;6.370;2023-08-06T07:25:01;17.30;99.90
52509;DHT22;38420;53.150;6.370;2023-08-06T07:27:26;17.50;99.90
52509;DHT22;38420;53.150;6.370;2023-08-06T07:29:52;16.10;99.90
52509;DHT22;38420;53.150;6.370;2023-08-06T07:32:18;17.10;99.90
52509;DHT22;38420;53.150;6.370;2023-08-06T07:34:43;15.40;99.90
52509;DHT22;38420;53.150;6.370;2023-08-06T07:37:09;16.00;99.90
52509;DHT22;38420;53.150;6.370;2023-08-06T07:39:35;17.70;99.90
52509;DHT22;38420;53.150;6.370;2023-08-06T07:42:00;15.80;99.90
52509;DHT22;38420;53.150;6.370;2023-08-06T07:44:27;17.30;99.90
52509;DHT22;38420;53.150;6.370;2023-08-06T07:46:53;17.70;99.90
52509;DHT22;38420;53.150;6.370;2023-08-06T07:49:19;16.40;99.90
52509;DHT22;38420;53.150;6.370;2023-08-06T07:51:44;16.00;99.90
52509;DHT22;38420;53.150;6.370;2023-08-06T07:54:10;16.40;99.90
52509;DHT22;38420;53.150;6.370;2023-08-06T07:56:35;16.70;99.90
52509;DHT22;38420;53.150;6.370;2023-08-06T07:59:02;17.00;99.90
52509;DHT22;38420;53.150;6.370;2023-08-06T08:01:27;17.00;99.90
52509;DHT22;38420;53.150;6.370;2023-08-06T08:03:53;18.20;99.90
52509;DHT22;38420;53.150;6.370;2023-08-06T08:06:18;18.00;99.90
52509;DHT22;38420;53.150;6.370;2023-08-06T08:08:44;18.70;99.90
52509;DHT22;38420;53.150;6.370;2023-08-06T08:11:10;17.10;99.90
52509;DHT22;38420;53.150;6.370;2023-08-06T08:13:36;18.80;99.90
52509;DHT22;38420;53.150;6.370;2023-08-06T08:16:02;18.80;99.90
52509;DHT22;38420;53.150;6.370;2023-08-06T08:18:27;17.90;99.90
52509;DHT22;38420;53.150;6.370;2023-08-06T08:20:53;19.10;99.90
52509;DHT22;38420;53.150;6.370;2023-08-06T08:23:19;19.30;99.90
52509;DHT22;38420;53.150;6.370;2023-08-06T08:25:44;18.20;99.90
52509;DHT22;38420;53.150;6.370;2023-08-06T08:28:10;19.40;99.90
52509;DHT22;38420;53.150;6.370;2023-08-06T08:30:35;18.60;99.90
52509;DHT22;38420;53.150;6.370;2023-08-06T08:33:01;18.70;99.90
52509;DHT22;38420;53.150;6.370;2023-08-06T08:35:27;19.80;99.90
52509;DHT22;38420;53.150;6.370;2023-08-06T08:37:52;18.90;99.90
52509;DHT22;38420;53.150;6.370;2023-08-06T08:40:18;19.00;99.90
52509;DHT22;38420;53.150;6.370;2023-08-06T08:42:44;19.80;99.90
52509;DHT22;38420;53.150;6.370;2023-08-06T08:45:14;19.90;99.90
52509;DHT22;38420;53.150;6.370;2023-08-06T08:47:42;19.80;99.90
52509;DHT22;38420;53.150;6.370;2023-08-06T08:50:09;19.30;99.90
52509;DHT22;38420;53.150;6.370;2023-08-06T08:52:36;19.90;99.90
52509;DHT22;38420;53.150;6.370;2023-08-06T08:55:03;19.40;99.90
52509;DHT22;38420;53.150;6.370;2023-08-06T08:57:29;19.50;99.90
52509;DHT22;38420;53.150;6.370;2023-08-06T08:59:55;19.80;99.90
52509;DHT22;38420;53.150;6.370;2023-08-06T09:02:21;20.50;99.90
52509;DHT22;38420;53.150;6.370;2023-08-06T09:04:49;20.20;99.90
52509;DHT22;38420;53.150;6.370;2023-08-06T09:07:18;20.70;99.90
52509;DHT22;38420;53.150;6.370;2023-08-06T09:09:47;20.10;99.90
52509;DHT22;38420;53.150;6.370;2023-08-06T09:12:17;20.10;99.90
52509;DHT22;38420;53.150;6.370;2023-08-06T09:14:43;19.90;99.90
52509;DHT22;38420;53.150;6.370;2023-08-06T09:17:09;20.00;99.90
52509;DHT22;38420;53.150;6.370;2023-08-06T09:19:36;19.70;99.90
52509;DHT22;38420;53.150;6.370;2023-08-06T09:22:02;20.00;99.90
52509;DHT22;38420;53.150;6.370;2023-08-06T09:24:27;19.70;99.90
52509;DHT22;38420;53.150;6.370;2023-08-06T09:26:53;19.70;99.90
52509;DHT22;38420;53.150;6.370;2023-08-06T09:29:20;19.80;99.90
52509;DHT22;38420;53.150;6.370;2023-08-06T09:31:47;19.90;99.90
52509;DHT22;38420;53.150;6.370;2023-08-06T09:34:23;19.60;99.90
52509;DHT22;38420;53.150;6.370;2023-08-06T09:36:52;19.80;99.90
52509;DHT22;38420;53.150;6.370;2023-08-06T09:39:31;19.70;99.90
52509;DHT22;38420;53.150;6.370;2023-08-06T09:41:58;19.60;99.90
52509;DHT22;38420;53.150;6.370;2023-08-06T09:44:25;19.50;99.90
52509;DHT22;38420;53.150;6.370;2023-08-06T09:46:56;19.70;99.90
52509;DHT22;38420;53.150;6.370;2023-08-06T09:51:58;19.90;99.90
52509;DHT22;38420;53.150;6.370;2023-08-06T09:54:26;20.00;99.90
52509;DHT22;38420;53.150;6.370;2023-08-06T09:56:53;19.70;99.90
52509;DHT22;38420;53.150;6.370;2023-08-06T09:59:19;19.90;99.90
52509;DHT22;38420;53.150;6.370;2023-08-06T10:01:46;20.10;99.90
52509;DHT22;38420;53.150;6.370;2023-08-06T10:04:14;19.80;99.90
52509;DHT22;38420;53.150;6.370;2023-08-06T10:06:42;20.00;99.90
52509;DHT22;38420;53.150;6.370;2023-08-06T10:09:08;19.70;99.90
52509;DHT22;38420;53.150;6.370;2023-08-06T10:11:36;20.00;99.90
52509;DHT22;38420;53.150;6.370;2023-08-06T10:14:12;19.90;99.90
52509;DHT22;38420;53.150;6.370;2023-08-06T10:16:41;20.20;99.90
52509;DHT22;38420;53.150;6.370;2023-08-06T10:19:09;20.20;99.90
52509;DHT22;38420;53.150;6.370;2023-08-06T10:21:35;20.30;99.90
52509;DHT22;38420;53.150;6.370;2023-08-06T10:24:01;20.20;99.90
52509;DHT22;38420;53.150;6.370;2023-08-06T10:26:29;20.40;99.90
52509;DHT22;38420;53.150;6.370;2023-08-06T10:28:55;20.50;99.90
52509;DHT22;38420;53.150;6.370;2023-08-06T10:35:00;20.20;99.90
52509;DHT22;38420;53.150;6.370;2023-08-06T10:37:36;20.10;99.90
52509;DHT22;38420;53.150;6.370;2023-08-06T10:40:02;20.20;99.90
52509;DHT22;38420;53.150;6.370;2023-08-06T10:42:28;20.20;99.90
52509;DHT22;38420;53.150;6.370;2023-08-06T10:45:14;20.20;99.90
52509;DHT22;38420;53.150;6.370;2023-08-06T10:47:42;20.30;99.90
52509;DHT22;38420;53.150;6.370;2023-08-06T10:50:10;20.50;99.90
52509;DHT22;38420;53.150;6.370;2023-08-06T10:52:36;20.60;99.90
52509;DHT22;38420;53.150;6.370;2023-08-06T10:55:01;20.70;99.90
52509;DHT22;38420;53.150;6.370;2023-08-06T10:57:27;20.70;99.90
52509;DHT22;38420;53.150;6.370;2023-08-06T10:59:53;20.80;99.90
52509;DHT22;38420;53.150;6.370;2023-08-06T11:02:18;20.70;99.90
52509;DHT22;38420;53.150;6.370;2023-08-06T11:04:44;20.70;99.90
52509;DHT22;38420;53.150;6.370;2023-08-06T11:07:10;20.70;99.90
52509;DHT22;38420;53.150;6.370;2023-08-06T11:09:36;20.60;99.90
52509;DHT22;38420;53.150;6.370;2023-08-06T11:12:02;20.50;99.90
52509;DHT22;38420;53.150;6.370;2023-08-06T11:14:32;20.40;99.90
52509;DHT22;38420;53.150;6.370;2023-08-06T11:16:57;20.50;99.90
52509;DHT22;38420;53.150;6.370;2023-08-06T11:19:23;20.60;99.90
52509;DHT22;38420;53.150;6.370;2023-08-06T11:21:51;20.70;99.90
52509;DHT22;38420;53.150;6.370;2023-08-06T11:24:17;20.70;99.90
52509;DHT22;38420;53.150;6.370;2023-08-06T11:26:43;20.80;99.90
52509;DHT22;38420;53.150;6.370;2023-08-06T11:29:10;20.80;99.90
52509;DHT22;38420;53.150;6.370;2023-08-06T11:31:36;20.90;99.90
52509;DHT22;38420;53.150;6.370;2023-08-06T11:34:02;20.80;99.90
52509;DHT22;38420;53.150;6.370;2023-08-06T11:36:36;20.80;99.90
52509;DHT22;38420;53.150;6.370;2023-08-06T11:39:05;20.80;99.90
52509;DHT22;38420;53.150;6.370;2023-08-06T11:41:32;20.90;99.90
52509;DHT22;38420;53.150;6.370;2023-08-06T11:43:59;20.90;99.90
52509;DHT22;38420;53.150;6.370;2023-08-06T11:46:24;20.90;99.90
52509;DHT22;38420;53.150;6.370;2023-08-06T11:48:55;20.80;99.90
52509;DHT22;38420;53.150;6.370;2023-08-06T11:51:27;20.80;99.90
52509;DHT22;38420;53.150;6.370;2023-08-06T11:53:57;20.70;99.90
52509;DHT22;38420;53.150;6.370;2023-08-06T11:56:23;20.70;99.90
52509;DHT22;38420;53.150;6.370;2023-08-06T11:58:49;20.60;99.90
52509;DHT22;38420;53.150;6.370;2023-08-06T12:01:15;20.60;99.90
52509;DHT22;38420;53.150;6.370;2023-08-06T12:03:41;20.50;99.90
52509;DHT22;38420;53.150;6.370;2023-08-06T12:06:06;20.40;99.90
52509;DHT22;38420;53.150;6.370;2023-08-06T12:08:35;20.40;99.90
52509;DHT22;38420;53.150;6.370;2023-08-06T12:11:01;20.40;99.90
52509;DHT22;38420;53.150;6.370;2023-08-06T12:13:26;20.30;99.90
52509;DHT22;38420;53.150;6.370;2023-08-06T12:15:54;20.40;99.90
52509;DHT22;38420;53.150;6.370;2023-08-06T12:18:20;20.50;99.90
52509;DHT22;38420;53.150;6.370;2023-08-06T12:20:45;20.50;99.90
52509;DHT22;38420;53.150;6.370;2023-08-06T12:23:11;20.40;99.90
52509;DHT22;38420;53.150;6.370;2023-08-06T12:25:41;20.40;99.90
52509;DHT22;38420;53.150;6.370;2023-08-06T12:28:06;20.30;99.90
52509;DHT22;38420;53.150;6.370;2023-08-06T12:30:33;20.30;99.90
52509;DHT22;38420;53.150;6.370;2023-08-06T12:32:59;20.10;99.90
52509;DHT22;38420;53.150;6.370;2023-08-06T12:35:25;20.20;99.90
52509;DHT22;38420;53.150;6.370;2023-08-06T12:37:51;20.20;99.90
52509;DHT22;38420;53.150;6.370;2023-08-06T12:40:20;20.10;99.90
52509;DHT22;38420;53.150;6.370;2023-08-06T12:42:45;20.00;99.90
52509;DHT22;38420;53.150;6.370;2023-08-06T12:45:11;19.90;99.90
52509;DHT22;38420;53.150;6.370;2023-08-06T12:47:37;19.80;99.90
52509;DHT22;38420;53.150;6.370;2023-08-06T12:50:03;19.90;99.90
52509;DHT22;38420;53.150;6.370;2023-08-06T12:52:29;20.00;99.90
52509;DHT22;38420;53.150;6.370;2023-08-06T12:54:55;20.10;99.90
52509;DHT22;38420;53.150;6.370;2023-08-06T12:57:20;20.10;99.90
52509;DHT22;38420;53.150;6.370;2023-08-06T12:59:46;20.30;99.90
52509;DHT22;38420;53.150;6.370;2023-08-06T13:02:12;20.40;99.90
52509;DHT22;38420;53.150;6.370;2023-08-06T13:04:37;20.40;99.90
52509;DHT22;38420;53.150;6.370;2023-08-06T13:07:03;20.50;99.90
52509;DHT22;38420;53.150;6.370;2023-08-06T13:09:28;20.40;99.90
52509;DHT22;38420;53.150;6.370;2023-08-06T13:11:55;20.30;99.90
52509;DHT22;38420;53.150;6.370;2023-08-06T13:14:20;20.20;99.90
52509;DHT22;38420;53.150;6.370;2023-08-06T13:16:46;20.10;99.90
52509;DHT22;38420;53.150;6.370;2023-08-06T13:19:12;20.10;99.90
52509;DHT22;38420;53.150;6.370;2023-08-06T13:24:06;20.40;99.90
52509;DHT22;38420;53.150;6.370;2023-08-06T13:26:32;20.40;99.90
52509;DHT22;38420;53.150;6.370;2023-08-06T13:28:58;20.40;99.90
52509;DHT22;38420;53.150;6.370;2023-08-06T13:31:26;20.40;99.90
52509;DHT22;38420;53.150;6.370;2023-08-06T13:33:52;20.50;99.90
52509;DHT22;38420;53.150;6.370;2023-08-06T13:36:19;20.50;99.90
52509;DHT22;38420;53.150;6.370;2023-08-06T13:38:45;20.50;99.90
52509;DHT22;38420;53.150;6.370;2023-08-06T13:41:10;20.40;99.90
52509;DHT22;38420;53.150;6.370;2023-08-06T13:43:36;20.40;99.90
52509;DHT22;38420;53.150;6.370;2023-08-06T13:46:02;20.50;99.90
52509;DHT22;38420;53.150;6.370;2023-08-06T13:48:28;20.50;99.90
52509;DHT22;38420;53.150;6.370;2023-08-06T13:50:53;20.30;99.90
52509;DHT22;38420;53.150;6.370;2023-08-06T13:53:19;20.30;99.90
52509;DHT22;38420;53.150;6.370;2023-08-06T13:55:44;20.30;99.90
52509;DHT22;38420;53.150;6.370;2023-08-06T13:58:10;20.30;99.90
52509;DHT22;38420;53.150;6.370;2023-08-06T14:00:36;20.30;99.90
52509;DHT22;38420;53.150;6.370;2023-08-06T14:03:02;20.30;99.90
52509;DHT22;38420;53.150;6.370;2023-08-06T14:05:28;20.40;99.90
52509;DHT22;38420;53.150;6.370;2023-08-06T14:07:53;20.40;99.90
52509;DHT22;38420;53.150;6.370;2023-08-06T14:10:19;20.50;99.90
52509;DHT22;38420;53.150;6.370;2023-08-06T14:12:45;20.60;99.90
52509;DHT22;38420;53.150;6.370;2023-08-06T14:15:11;20.60;99.90
52509;DHT22;38420;53.150;6.370;2023-08-06T14:17:37;20.60;99.90
52509;DHT22;38420;53.150;6.370;2023-08-06T14:20:03;20.50;99.90
52509;DHT22;38420;53.150;6.370;2023-08-06T14:22:30;20.60;99.90
52509;DHT22;38420;53.150;6.370;2023-08-06T14:24:57;20.40;99.90
52509;DHT22;38420;53.150;6.370;2023-08-06T14:27:23;20.20;99.90
52509;DHT22;38420;53.150;6.370;2023-08-06T14:29:48;20.10;99.90
52509;DHT22;38420;53.150;6.370;2023-08-06T14:32:14;20.10;99.90
52509;DHT22;38420;53.150;6.370;2023-08-06T14:34:43;20.00;99.90
52509;DHT22;38420;53.150;6.370;2023-08-06T14:37:09;19.90;99.90
52509;DHT22;38420;53.150;6.370;2023-08-06T14:39:35;19.80;99.90
52509;DHT22;38420;53.150;6.370;2023-08-06T14:42:01;19.90;99.90
52509;DHT22;38420;53.150;6.370;2023-08-06T14:44:27;20.00;99.90
52509;DHT22;38420;53.150;6.370;2023-08-06T14:46:53;20.10;99.90
52509;DHT22;38420;53.150;6.370;2023-08-06T14:49:18;20.00;99.90
52509;DHT22;38420;53.150;6.370;2023-08-06T14:51:44;19.90;99.90
52509;DHT22;38420;53.150;6.370;2023-08-06T14:54:10;19.90;99.90
52509;DHT22;38420;53.150;6.370;2023-08-06T14:56:35;19.90;99.90
52509;DHT22;38420;53.150;6.370;2023-08-06T14:59:01;19.90;99.90
52509;DHT22;38420;53.150;6.370;2023-08-06T15:01:26;19.90;99.90
52509;DHT22;38420;53.150;6.370;2023-08-06T15:03:52;20.00;99.90
52509;DHT22;38420;53.150;6.370;2023-08-06T15:06:18;20.00;99.90
52509;DHT22;38420;53.150;6.370;2023-08-06T15:08:43;19.90;99.90
52509;DHT22;38420;53.150;6.370;2023-08-06T15:11:13;20.00;99.90
52509;DHT22;38420;53.150;6.370;2023-08-06T15:13:39;20.00;99.90
52509;DHT22;38420;53.150;6.370;2023-08-06T15:16:04;20.10;99.90
52509;DHT22;38420;53.150;6.370;2023-08-06T15:18:30;20.00;99.90
52509;DHT22;38420;53.150;6.370;2023-08-06T15:20:56;19.90;99.90
52509;DHT22;38420;53.150;6.370;2023-08-06T15:23:23;20.00;99.90
52509;DHT22;38420;53.150;6.370;2023-08-06T15:25:49;20.00;99.90
52509;DHT22;38420;53.150;6.370;2023-08-06T15:28:15;19.90;99.90
52509;DHT22;38420;53.150;6.370;2023-08-06T15:30:40;20.00;99.90
52509;DHT22;38420;53.150;6.370;2023-08-06T15:33:10;20.00;99.90
52509;DHT22;38420;53.150;6.370;2023-08-06T15:35:36;20.00;99.90